Time,TemperatureF,DewpointF,PressureIn,WindDirection,WindDirectionDegrees,WindSpeedMPH,WindSpeedGustMPH,Humidity,HourlyPrecipIn,Conditions,Clouds,dailyrainin,SoftwareType,DateUTC
2013-06-20 00:01:00,71.3,70.1,30.00,SE,135,0.0,0.0,96,0.00,,---,0.00,VWS V14.01,2013-06-20 05:01:00,
2013-06-20 00:06:00,71.3,70.1,30.00,SE,135,0.0,0.0,96,0.00,,---,0.00,VWS V14.01,2013-06-20 05:06:00,
2013-06-20 00:11:00,71.3,70.1,30.00,SE,135,0.0,0.0,96,0.00,,---,0.00,VWS V14.01,2013-06-20 05:11:00,
2013-06-20 00:16:00,71.3,70.1,30.00,SE,135,0.0,0.0,96,0.00,,---,0.00,VWS V14.01,2013-06-20 05:16:00,
2013-06-20 00:21:00,71.2,70.0,30.00,SE,135,0.0,0.0,96,0.00,,---,0.00,VWS V14.01,2013-06-20 05:21:00,
2013-06-20 00:26:00,71.2,70.0,30.00,SE,135,0.0,0.0,96,0.00,,---,0.00,VWS V14.01,2013-06-20 05:26:00,
2013-06-20 00:31:00,71.2,70.0,30.00,SE,135,0.0,0.0,96,0.00,,---,0.00,VWS V14.01,2013-06-20 05:31:00,
2013-06-20 00:36:00,71.0,69.8,30.00,SE,135,0.0,0.0,96,0.00,,---,0.00,VWS V14.01,2013-06-20 05:36:00,
2013-06-20 00:41:00,71.0,69.8,30.00,SE,135,0.0,0.0,96,0.00,,---,0.00,VWS V14.01,2013-06-20 05:41:00,
2013-06-20 00:46:00,71.0,69.8,30.00,SSW,202,0.0,0.0,96,0.00,,---,0.00,VWS V14.01,2013-06-20 05:46:00,
2013-06-20 00:51:00,71.0,69.8,30.00,SW,225,0.0,0.0,96,0.00,,---,0.00,VWS V14.01,2013-06-20 05:51:00,
2013-06-20 00:56:00,70.8,69.6,30.00,WSW,248,0.0,0.0,96,0.00,,---,0.00,VWS V14.01,2013-06-20 05:56:00,
2013-06-20 01:01:00,70.8,69.6,30.00,WSW,248,0.0,0.0,96,0.00,,---,0.00,VWS V14.01,2013-06-20 06:01:00,
2013-06-20 01:06:00,70.8,69.6,30.00,WSW,248,0.0,0.0,96,0.00,,---,0.00,VWS V14.01,2013-06-20 06:06:00,
2013-06-20 01:11:00,70.8,69.6,30.00,WSW,248,0.0,0.0,96,0.00,,---,0.00,VWS V14.01,2013-06-20 06:11:00,
2013-06-20 01:16:00,70.8,69.6,30.00,WSW,248,0.0,0.0,96,0.00,,---,0.00,VWS V14.01,2013-06-20 06:16:00,
2013-06-20 01:21:00,70.6,69.4,30.00,WSW,248,0.0,0.0,96,0.00,,---,0.00,VWS V14.01,2013-06-20 06:21:00,
2013-06-20 01:26:00,70.6,69.4,30.00,WSW,248,0.0,0.0,96,0.00,,---,0.00,VWS V14.01,2013-06-20 06:26:00,
2013-06-20 01:31:00,70.6,69.4,30.00,WSW,248,0.0,0.0,96,0.00,,---,0.00,VWS V14.01,2013-06-20 06:31:00,
2013-06-20 01:36:00,70.4,69.2,30.00,WSW,248,0.0,0.0,96,0.00,,---,0.00,VWS V14.01,2013-06-20 06:36:00,
2013-06-20 01:41:00,70.4,69.2,30.00,WSW,248,0.0,0.0,96,0.00,,---,0.00,VWS V14.01,2013-06-20 06:41:00,
2013-06-20 01:46:00,70.4,69.2,30.00,SW,225,0.0,0.0,96,0.00,,---,0.00,VWS V14.01,2013-06-20 06:46:00,
2013-06-20 01:52:00,70.4,69.2,30.00,SW,225,0.0,0.0,96,0.00,,---,0.00,VWS V14.01,2013-06-20 06:52:00,
2013-06-20 01:57:00,70.3,69.1,30.00,WSW,248,0.0,0.0,96,0.00,,---,0.00,VWS V14.01,2013-06-20 06:57:00,
2013-06-20 02:02:00,70.3,69.1,30.00,WSW,248,0.0,0.0,96,0.00,,---,0.00,VWS V14.01,2013-06-20 07:02:00,
2013-06-20 02:07:00,70.3,69.1,30.00,SSW,202,0.0,0.0,96,0.00,,---,0.00,VWS V14.01,2013-06-20 07:07:00,
2013-06-20 02:12:00,70.3,69.1,30.00,SSW,202,0.0,0.0,96,0.00,,---,0.00,VWS V14.01,2013-06-20 07:12:00,
2013-06-20 02:17:00,70.1,68.9,30.00,SSW,202,0.0,0.0,96,0.00,,---,0.00,VWS V14.01,2013-06-20 07:17:00,
2013-06-20 02:22:00,70.1,68.9,30.00,SSW,202,0.0,0.0,96,0.00,,---,0.00,VWS V14.01,2013-06-20 07:22:00,
2013-06-20 02:27:00,69.9,68.7,30.00,SSW,202,0.0,0.0,96,0.00,,---,0.00,VWS V14.01,2013-06-20 07:27:00,
2013-06-20 02:39:00,69.9,68.7,30.00,SSW,202,0.0,0.0,96,0.00,,---,0.00,VWS V14.01,2013-06-20 07:39:00,
2013-06-20 02:44:00,69.9,68.7,30.00,SSW,202,0.0,0.0,96,0.00,,---,0.00,VWS V14.01,2013-06-20 07:44:00,
2013-06-20 02:49:00,69.7,68.5,30.00,SSW,202,0.0,0.0,96,0.00,,---,0.00,VWS V14.01,2013-06-20 07:49:00,
2013-06-20 02:54:00,69.7,68.5,30.00,SSW,202,0.0,0.0,96,0.00,,---,0.00,VWS V14.01,2013-06-20 07:54:00,
2013-06-20 02:59:00,69.7,68.5,30.00,SSW,202,0.0,0.0,96,0.00,,---,0.00,VWS V14.01,2013-06-20 07:59:00,
2013-06-20 03:04:00,69.7,68.5,30.00,SSW,202,0.0,0.0,96,0.00,,---,0.00,VWS V14.01,2013-06-20 08:04:00,
2013-06-20 03:09:00,69.5,68.3,30.00,SSW,202,0.0,0.0,96,0.00,,---,0.00,VWS V14.01,2013-06-20 08:09:00,
2013-06-20 03:14:00,69.5,68.3,30.00,SSW,202,0.0,0.0,96,0.00,,---,0.00,VWS V14.01,2013-06-20 08:14:00,
2013-06-20 03:19:00,69.5,68.3,30.00,SSW,202,0.0,0.0,96,0.00,,---,0.00,VWS V14.01,2013-06-20 08:19:00,
2013-06-20 03:24:00,69.5,68.3,30.00,SSW,202,0.0,0.0,96,0.00,,---,0.00,VWS V14.01,2013-06-20 08:24:00,
2013-06-20 03:29:00,69.5,68.3,30.00,SSW,202,0.0,0.0,96,0.00,,---,0.00,VWS V14.01,2013-06-20 08:29:00,
2013-06-20 03:34:00,69.4,68.2,30.00,SSW,202,0.0,0.0,96,0.00,,---,0.00,VWS V14.01,2013-06-20 08:34:00,
2013-06-20 03:40:00,69.4,68.2,30.00,SSW,202,0.0,0.0,96,0.00,,---,0.00,VWS V14.01,2013-06-20 08:40:00,
2013-06-20 03:45:00,69.4,68.2,30.00,ENE,68,0.0,0.0,96,0.00,,---,0.00,VWS V14.01,2013-06-20 08:45:00,
2013-06-20 03:50:00,69.2,68.0,30.00,ENE,68,0.0,0.0,96,0.00,,---,0.09,VWS V14.01,2013-06-20 08:50:00,
2013-06-20 03:55:00,69.2,68.0,30.00,ENE,68,0.0,0.0,96,0.00,,---,0.00,VWS V14.01,2013-06-20 08:55:00,
2013-06-20 04:00:00,69.0,67.8,30.00,ENE,68,0.0,0.0,96,0.00,,---,0.00,VWS V14.01,2013-06-20 09:00:00,
2013-06-20 04:05:00,69.0,67.8,30.00,ENE,68,0.0,0.0,96,0.00,,---,0.00,VWS V14.01,2013-06-20 09:05:00,
2013-06-20 04:10:00,69.0,67.8,30.00,ENE,68,0.0,0.0,96,0.00,,---,0.00,VWS V14.01,2013-06-20 09:10:00,
2013-06-20 04:15:00,69.0,68.1,30.00,ENE,68,0.0,0.0,97,0.00,,---,0.00,VWS V14.01,2013-06-20 09:15:00,
2013-06-20 04:20:00,69.2,68.3,30.00,SSE,158,0.0,0.0,97,0.00,,---,0.00,VWS V14.01,2013-06-20 09:20:00,
2013-06-20 04:25:00,69.2,68.3,30.00,SSE,158,0.0,0.0,97,0.00,,---,0.00,VWS V14.01,2013-06-20 09:25:00,
2013-06-20 04:30:00,69.2,68.3,30.00,SSE,158,0.0,0.0,97,0.00,,---,0.00,VWS V14.01,2013-06-20 09:30:00,
2013-06-20 04:35:00,69.0,68.1,30.00,SSE,158,0.0,0.0,97,0.00,,---,0.00,VWS V14.01,2013-06-20 09:35:00,
2013-06-20 04:41:00,69.0,68.1,30.00,SSE,158,0.0,0.0,97,0.00,,---,0.00,VWS V14.01,2013-06-20 09:41:00,
2013-06-20 04:46:00,69.0,68.1,30.00,WNW,292,0.0,0.0,97,0.00,,---,0.00,VWS V14.01,2013-06-20 09:46:00,
2013-06-20 04:51:00,69.0,68.1,30.00,WSW,248,0.0,0.0,97,0.00,,---,0.00,VWS V14.01,2013-06-20 09:51:00,
2013-06-20 04:56:00,69.0,68.1,30.00,SW,225,0.0,0.0,97,0.00,,---,0.00,VWS V14.01,2013-06-20 09:56:00,
2013-06-20 05:01:00,69.0,68.1,30.00,SW,225,0.0,0.0,97,0.00,,---,0.00,VWS V14.01,2013-06-20 10:01:00,
2013-06-20 05:06:00,69.0,68.1,30.00,SSW,202,0.0,0.0,97,0.00,,---,0.00,VWS V14.01,2013-06-20 10:06:00,
2013-06-20 05:11:00,68.8,67.9,30.00,SSW,202,0.0,0.0,97,0.00,,---,0.00,VWS V14.01,2013-06-20 10:11:00,
2013-06-20 05:16:00,68.8,67.9,30.00,SSW,202,0.0,0.0,97,0.00,,---,0.00,VWS V14.01,2013-06-20 10:16:00,
2013-06-20 05:21:00,68.8,67.9,30.00,SSW,202,0.0,0.0,97,0.00,,---,0.00,VWS V14.01,2013-06-20 10:21:00,
2013-06-20 05:26:00,68.6,67.8,30.00,West,270,0.0,0.0,97,0.00,,---,0.00,VWS V14.01,2013-06-20 10:26:00,
2013-06-20 05:31:00,68.6,67.8,30.00,WNW,292,0.0,0.0,97,0.00,,---,0.00,VWS V14.01,2013-06-20 10:31:00,
2013-06-20 05:36:00,68.5,67.6,30.00,WNW,292,0.0,0.0,97,0.00,,---,0.00,VWS V14.01,2013-06-20 10:36:00,
2013-06-20 05:41:00,68.5,67.6,30.00,WNW,292,0.0,0.0,97,0.00,,---,0.00,VWS V14.01,2013-06-20 10:41:00,
2013-06-20 05:46:00,68.5,67.6,30.00,WNW,292,0.0,0.0,97,0.00,,---,0.00,VWS V14.01,2013-06-20 10:46:00,
2013-06-20 05:51:00,68.5,67.6,30.00,West,270,0.0,0.0,97,0.00,,---,0.00,VWS V14.01,2013-06-20 10:51:00,
2013-06-20 05:56:00,68.5,67.6,30.00,West,270,0.0,0.0,97,0.00,,---,0.00,VWS V14.01,2013-06-20 10:56:00,
2013-06-20 06:01:00,68.5,67.6,30.03,West,270,0.0,0.0,97,0.00,,---,0.00,VWS V14.01,2013-06-20 11:01:00,
2013-06-20 06:06:00,68.5,67.6,30.03,West,270,0.0,0.0,97,0.00,,---,0.00,VWS V14.01,2013-06-20 11:06:00,
2013-06-20 06:11:00,68.5,67.6,30.03,West,270,0.0,0.0,97,0.00,,---,0.00,VWS V14.01,2013-06-20 11:11:00,
2013-06-20 06:16:00,68.5,67.6,30.03,West,270,0.0,0.0,97,0.00,,---,0.00,VWS V14.01,2013-06-20 11:16:00,
2013-06-20 06:21:00,68.5,67.6,30.03,West,270,0.0,0.0,97,0.00,,---,0.00,VWS V14.01,2013-06-20 11:21:00,
2013-06-20 06:26:00,68.5,67.6,30.03,West,270,0.0,0.0,97,0.00,,---,0.00,VWS V14.01,2013-06-20 11:26:00,
2013-06-20 06:31:00,68.5,67.6,30.03,West,270,0.0,0.0,97,0.00,,---,0.00,VWS V14.01,2013-06-20 11:31:00,
2013-06-20 06:36:00,68.6,67.8,30.03,West,270,0.0,0.0,97,0.00,,---,0.00,VWS V14.01,2013-06-20 11:36:00,
2013-06-20 06:41:00,68.6,67.8,30.03,West,270,0.0,0.0,97,0.00,,---,0.00,VWS V14.01,2013-06-20 11:41:00,
2013-06-20 06:46:00,68.8,67.9,30.03,West,270,0.0,0.0,97,0.00,,---,0.00,VWS V14.01,2013-06-20 11:46:00,
2013-06-20 06:51:00,68.8,67.9,30.03,West,270,0.0,0.0,97,0.00,,---,0.00,VWS V14.01,2013-06-20 11:51:00,
2013-06-20 06:56:00,68.8,67.9,30.03,West,270,0.0,0.0,97,0.00,,---,0.00,VWS V14.01,2013-06-20 11:56:00,
2013-06-20 07:01:00,69.0,68.1,30.03,West,270,0.0,0.0,97,0.00,,---,0.00,VWS V14.01,2013-06-20 12:01:00,
2013-06-20 07:06:00,69.2,68.3,30.03,West,270,0.0,0.0,97,0.00,,---,0.00,VWS V14.01,2013-06-20 12:06:00,
2013-06-20 07:11:00,69.4,68.5,30.03,West,270,0.0,0.0,97,0.00,,---,0.00,VWS V14.01,2013-06-20 12:11:00,
2013-06-20 07:16:00,69.5,68.7,30.06,West,270,0.0,0.0,97,0.00,,---,0.00,VWS V14.01,2013-06-20 12:16:00,
2013-06-20 07:21:00,69.5,68.7,30.06,West,270,0.0,0.0,97,0.00,,---,0.00,VWS V14.01,2013-06-20 12:21:00,
2013-06-20 07:26:00,69.7,68.8,30.06,West,270,0.0,0.0,97,0.00,,---,0.00,VWS V14.01,2013-06-20 12:26:00,
2013-06-20 07:31:00,69.9,69.0,30.06,West,270,0.0,0.0,97,0.00,,---,0.00,VWS V14.01,2013-06-20 12:31:00,
2013-06-20 07:36:00,70.1,69.5,30.06,West,270,0.0,0.0,98,0.00,,---,0.00,VWS V14.01,2013-06-20 12:36:00,
2013-06-20 07:41:00,70.4,69.8,30.06,West,270,0.0,0.0,98,0.00,,---,0.00,VWS V14.01,2013-06-20 12:41:00,
2013-06-20 07:46:00,70.8,70.2,30.06,West,270,0.0,0.0,98,0.00,,---,0.00,VWS V14.01,2013-06-20 12:46:00,
2013-06-20 07:51:00,71.2,70.6,30.06,West,270,0.0,0.0,98,0.00,,---,0.00,VWS V14.01,2013-06-20 12:51:00,
2013-06-20 07:56:00,71.5,70.9,30.06,West,270,0.0,0.0,98,0.00,,---,0.00,VWS V14.01,2013-06-20 12:56:00,
2013-06-20 08:01:00,71.9,71.3,30.06,West,270,0.0,0.0,98,0.00,,---,0.00,VWS V14.01,2013-06-20 13:01:00,
2013-06-20 08:06:00,72.2,71.7,30.06,West,270,0.0,0.0,98,0.00,,---,0.00,VWS V14.01,2013-06-20 13:06:00,
2013-06-20 08:11:00,72.6,72.0,30.06,West,270,0.0,0.0,98,0.00,,---,0.00,VWS V14.01,2013-06-20 13:11:00,
2013-06-20 08:16:00,73.0,72.4,30.09,West,270,0.0,0.0,98,0.00,,---,0.00,VWS V14.01,2013-06-20 13:16:00,
2013-06-20 08:21:00,73.3,72.7,30.09,West,270,0.0,0.0,98,0.00,,---,0.00,VWS V14.01,2013-06-20 13:21:00,
2013-06-20 08:26:00,73.9,73.3,30.09,West,270,0.0,0.0,98,0.00,,---,0.00,VWS V14.01,2013-06-20 13:26:00,
2013-06-20 08:31:00,74.0,73.4,30.09,West,270,0.0,0.0,98,0.00,,---,0.00,VWS V14.01,2013-06-20 13:31:00,
2013-06-20 08:36:00,74.4,73.8,30.09,West,270,0.0,0.0,98,0.00,,---,0.00,VWS V14.01,2013-06-20 13:36:00,
2013-06-20 08:41:00,74.8,74.2,30.09,West,270,0.0,0.0,98,0.00,,---,0.00,VWS V14.01,2013-06-20 13:41:00,
2013-06-20 08:46:00,75.1,74.2,30.09,ESE,112,0.0,0.0,97,0.00,,---,0.00,VWS V14.01,2013-06-20 13:46:00,
2013-06-20 08:51:00,75.7,74.8,30.09,ENE,68,0.0,0.0,97,0.00,,---,0.00,VWS V14.01,2013-06-20 13:51:00,
2013-06-20 08:56:00,76.0,75.1,30.09,NE,45,0.0,0.0,97,0.00,,---,0.00,VWS V14.01,2013-06-20 13:56:00,
2013-06-20 09:01:00,76.6,75.3,30.09,ESE,112,0.0,0.0,96,0.00,,---,0.00,VWS V14.01,2013-06-20 14:01:00,
2013-06-20 09:07:00,77.1,75.6,30.09,ESE,112,0.0,0.0,95,0.00,,---,0.00,VWS V14.01,2013-06-20 14:07:00,
2013-06-20 09:12:00,77.5,75.6,30.09,North,0,0.0,0.0,94,0.00,,---,0.00,VWS V14.01,2013-06-20 14:12:00,
2013-06-20 09:17:00,77.8,76.0,30.09,North,0,0.0,0.0,94,0.00,,---,0.00,VWS V14.01,2013-06-20 14:17:00,
2013-06-20 09:22:00,78.2,75.7,30.09,NNW,338,0.0,0.0,92,0.00,,---,0.00,VWS V14.01,2013-06-20 14:22:00,
2013-06-20 09:27:00,79.1,76.2,30.09,SSE,158,0.0,0.0,91,0.00,,---,0.00,VWS V14.01,2013-06-20 14:27:00,
2013-06-20 09:32:00,79.6,76.1,30.09,North,0,0.9,0.9,89,0.00,,---,0.00,VWS V14.01,2013-06-20 14:32:00,
2013-06-20 09:37:00,80.0,75.4,30.09,NNW,338,0.0,0.0,86,0.00,,---,0.00,VWS V14.01,2013-06-20 14:37:00,
2013-06-20 09:42:00,80.2,75.6,30.09,NNW,338,0.0,0.0,86,0.00,,---,0.00,VWS V14.01,2013-06-20 14:42:00,
2013-06-20 09:47:00,80.5,75.9,30.09,SSE,158,0.0,0.0,86,0.00,,---,0.00,VWS V14.01,2013-06-20 14:47:00,
2013-06-20 09:52:00,81.1,76.1,30.09,SSE,158,0.0,0.0,85,0.00,,---,0.00,VWS V14.01,2013-06-20 14:52:00,
2013-06-20 09:57:00,81.2,76.3,30.09,ENE,68,0.0,0.0,85,0.00,,---,0.00,VWS V14.01,2013-06-20 14:57:00,
2013-06-20 10:02:00,80.7,74.7,30.09,ENE,68,0.0,0.0,82,0.00,,---,0.00,VWS V14.01,2013-06-20 15:02:00,
2013-06-20 10:07:00,80.3,74.3,30.09,WNW,292,0.0,0.0,82,0.00,,---,0.00,VWS V14.01,2013-06-20 15:07:00,
2013-06-20 10:12:00,80.3,74.0,30.09,NNW,338,0.0,0.0,81,0.00,,---,0.00,VWS V14.01,2013-06-20 15:12:00,
2013-06-20 10:17:00,81.2,74.1,30.09,WNW,292,0.0,1.3,79,0.00,,---,0.00,VWS V14.01,2013-06-20 15:17:00,
2013-06-20 10:22:00,81.4,74.3,30.09,SW,225,0.0,0.0,79,0.00,,---,0.00,VWS V14.01,2013-06-20 15:22:00,
2013-06-20 10:27:00,81.1,73.6,30.09,NW,315,0.0,0.0,78,0.00,,---,0.00,VWS V14.01,2013-06-20 15:27:00,
2013-06-20 10:32:00,80.5,73.4,30.09,NW,315,0.0,1.1,79,0.00,,---,0.00,VWS V14.01,2013-06-20 15:32:00,
2013-06-20 10:37:00,81.2,74.1,30.09,North,0,0.0,0.0,79,0.00,,---,0.00,VWS V14.01,2013-06-20 15:37:00,
2013-06-20 10:42:00,81.1,74.3,30.09,NE,45,0.0,0.0,80,0.00,,---,0.00,VWS V14.01,2013-06-20 15:42:00,
2013-06-20 10:47:00,81.2,74.1,30.09,NE,45,0.0,0.0,79,0.00,,---,0.00,VWS V14.01,2013-06-20 15:47:00,
2013-06-20 10:52:00,81.8,74.6,30.09,SSE,158,0.0,1.3,79,0.00,,---,0.00,VWS V14.01,2013-06-20 15:52:00,
2013-06-20 10:57:00,82.3,75.5,30.09,WSW,248,0.0,1.6,80,0.00,,---,0.00,VWS V14.01,2013-06-20 15:57:00,
2013-06-20 11:02:00,82.7,75.1,30.09,WSW,248,0.0,0.0,78,0.00,,---,0.00,VWS V14.01,2013-06-20 16:02:00,
2013-06-20 11:07:00,82.3,73.6,30.09,WSW,248,0.0,0.0,75,0.00,,---,0.00,VWS V14.01,2013-06-20 16:07:00,
2013-06-20 11:12:00,82.5,73.8,30.09,WSW,248,0.0,0.0,75,0.00,,---,0.00,VWS V14.01,2013-06-20 16:12:00,
2013-06-20 11:17:00,83.2,73.7,30.09,ESE,112,0.0,2.0,73,0.00,,---,0.00,VWS V14.01,2013-06-20 16:17:00,
2013-06-20 11:22:00,83.0,72.2,30.09,SSW,202,0.0,0.0,70,0.00,,---,0.00,VWS V14.01,2013-06-20 16:22:00,
2013-06-20 11:27:00,83.4,72.6,30.09,WSW,248,0.0,0.0,70,0.00,,---,0.00,VWS V14.01,2013-06-20 16:27:00,
2013-06-20 11:32:00,84.5,72.8,30.09,NNW,338,0.9,2.2,68,0.00,,---,0.00,VWS V14.01,2013-06-20 16:32:00,
2013-06-20 11:37:00,84.3,71.3,30.09,NNW,338,0.0,0.0,65,0.00,,---,0.00,VWS V14.01,2013-06-20 16:37:00,
2013-06-20 11:42:00,83.4,71.3,30.09,NNW,338,0.0,0.0,67,0.00,,---,0.00,VWS V14.01,2013-06-20 16:42:00,
2013-06-20 11:47:00,82.9,71.7,30.09,NNW,338,0.0,0.0,69,0.00,,---,0.00,VWS V14.01,2013-06-20 16:47:00,
2013-06-20 11:52:00,83.0,72.2,30.09,WNW,292,0.0,0.0,70,0.00,,---,0.00,VWS V14.01,2013-06-20 16:52:00,
2013-06-20 11:57:00,83.4,73.4,30.06,SSW,202,0.0,0.0,72,0.00,,---,0.00,VWS V14.01,2013-06-20 16:57:00,
2013-06-20 12:02:00,83.8,73.8,30.06,ENE,68,0.0,0.0,72,0.00,,---,0.00,VWS V14.01,2013-06-20 17:02:00,
2013-06-20 12:07:00,83.8,74.2,30.06,SSW,202,0.0,0.0,73,0.00,,---,0.00,VWS V14.01,2013-06-20 17:07:00,
2013-06-20 12:12:00,83.9,74.4,30.06,ENE,68,0.0,0.0,73,0.00,,---,0.00,VWS V14.01,2013-06-20 17:12:00,
2013-06-20 12:17:00,84.5,74.5,30.09,NNW,338,0.0,0.9,72,0.00,,---,0.00,VWS V14.01,2013-06-20 17:17:00,
2013-06-20 12:22:00,85.0,72.4,30.09,NNW,338,0.0,2.0,66,0.00,,---,0.00,VWS V14.01,2013-06-20 17:22:00,
2013-06-20 12:27:00,85.6,72.5,30.09,ESE,112,0.0,0.0,65,0.00,,---,0.00,VWS V14.01,2013-06-20 17:27:00,
2013-06-20 12:32:00,85.9,70.9,30.09,West,270,0.0,1.3,61,0.00,,---,0.00,VWS V14.01,2013-06-20 17:32:00,
2013-06-20 12:37:00,86.3,72.2,30.09,NNE,22,0.0,0.0,63,0.00,,---,0.00,VWS V14.01,2013-06-20 17:37:00,
2013-06-20 12:42:00,86.8,74.1,30.06,ENE,68,1.1,2.0,66,0.00,,---,0.00,VWS V14.01,2013-06-20 17:42:00,
2013-06-20 12:47:00,87.2,73.5,30.06,ENE,68,0.0,0.0,64,0.00,,---,0.00,VWS V14.01,2013-06-20 17:47:00,
2013-06-20 12:52:00,87.5,72.9,30.06,SSW,202,0.9,0.9,62,0.00,,---,0.00,VWS V14.01,2013-06-20 17:52:00,
2013-06-20 12:57:00,87.0,71.4,30.06,SE,135,0.0,0.0,60,0.00,,---,0.00,VWS V14.01,2013-06-20 17:57:00,
2013-06-20 13:02:00,86.1,71.6,30.06,ENE,68,0.0,0.0,62,0.00,,---,0.00,VWS V14.01,2013-06-20 18:02:00,
2013-06-20 13:07:00,85.4,71.4,30.06,ENE,68,0.0,0.0,63,0.00,,---,0.00,VWS V14.01,2013-06-20 18:07:00,
2013-06-20 13:12:00,84.8,72.2,30.06,ENE,68,0.0,0.0,66,0.00,,---,0.00,VWS V14.01,2013-06-20 18:12:00,
2013-06-20 13:17:00,84.7,72.9,30.06,NNE,22,0.0,0.0,68,0.00,,---,0.00,VWS V14.01,2013-06-20 18:17:00,
2013-06-20 13:22:00,84.5,72.3,30.06,NNE,22,0.0,0.0,67,0.00,,---,0.00,VWS V14.01,2013-06-20 18:22:00,
2013-06-20 13:28:00,84.8,73.1,30.06,WNW,292,0.0,0.0,68,0.00,,---,0.00,VWS V14.01,2013-06-20 18:28:00,
2013-06-20 13:33:00,85.4,72.7,30.06,NNE,22,0.0,0.0,66,0.00,,---,0.00,VWS V14.01,2013-06-20 18:33:00,
2013-06-20 13:38:00,85.2,71.7,30.06,NNE,22,0.0,0.0,64,0.00,,---,0.00,VWS V14.01,2013-06-20 18:38:00,
2013-06-20 13:43:00,85.7,73.1,30.06,NNE,22,0.0,0.0,66,0.00,,---,0.00,VWS V14.01,2013-06-20 18:43:00,
2013-06-20 13:48:00,85.7,73.5,30.06,ENE,68,0.0,0.0,67,0.00,,---,0.00,VWS V14.01,2013-06-20 18:48:00,
2013-06-20 13:53:00,85.9,74.1,30.06,ENE,68,0.0,0.0,68,0.00,,---,0.00,VWS V14.01,2013-06-20 18:53:00,
2013-06-20 13:58:00,86.5,73.8,30.06,NE,45,0.0,0.0,66,0.00,,---,0.00,VWS V14.01,2013-06-20 18:58:00,
2013-06-20 14:03:00,87.2,74.0,30.06,NNE,22,0.0,0.0,65,0.00,,---,0.00,VWS V14.01,2013-06-20 19:03:00,
2013-06-20 14:08:00,87.4,75.1,30.06,SSE,158,2.0,2.0,67,0.00,,---,0.00,VWS V14.01,2013-06-20 19:08:00,
2013-06-20 14:13:00,87.9,74.2,30.06,North,0,0.0,0.0,64,0.00,,---,0.00,VWS V14.01,2013-06-20 19:13:00,
2013-06-20 14:18:00,88.1,73.9,30.06,NNE,22,0.0,0.0,63,0.00,,---,0.00,VWS V14.01,2013-06-20 19:18:00,
2013-06-20 14:23:00,88.1,73.4,30.06,NNE,22,0.0,0.0,62,0.00,,---,0.00,VWS V14.01,2013-06-20 19:23:00,
2013-06-20 14:28:00,87.0,72.9,30.06,NE,45,0.0,0.0,63,0.00,,---,0.00,VWS V14.01,2013-06-20 19:28:00,
2013-06-20 14:33:00,86.5,72.4,30.06,NE,45,0.0,0.0,63,0.00,,---,0.00,VWS V14.01,2013-06-20 19:33:00,
2013-06-20 14:38:00,85.7,71.2,30.06,NW,315,0.0,0.0,62,0.00,,---,0.00,VWS V14.01,2013-06-20 19:38:00,
2013-06-20 14:43:00,85.9,71.9,30.06,NW,315,0.0,0.0,63,0.00,,---,0.00,VWS V14.01,2013-06-20 19:43:00,
2013-06-20 14:48:00,86.6,72.1,30.06,NE,45,0.0,0.0,62,0.00,,---,0.00,VWS V14.01,2013-06-20 19:48:00,
2013-06-20 14:53:00,87.0,71.4,30.06,NNW,338,0.0,0.0,60,0.00,,---,0.00,VWS V14.01,2013-06-20 19:53:00,
2013-06-20 14:58:00,86.8,71.8,30.06,NNW,338,0.0,0.0,61,0.00,,---,0.00,VWS V14.01,2013-06-20 19:58:00,
2013-06-20 15:03:00,87.0,70.4,30.06,NE,45,0.0,0.0,58,0.00,,---,0.00,VWS V14.01,2013-06-20 20:03:00,
2013-06-20 15:08:00,87.4,71.3,30.06,West,270,0.0,0.0,59,0.00,,---,0.00,VWS V14.01,2013-06-20 20:08:00,
2013-06-20 15:13:00,87.7,71.6,30.06,NE,45,0.0,0.0,59,0.00,,---,0.00,VWS V14.01,2013-06-20 20:13:00,
2013-06-20 15:18:00,87.7,72.1,30.06,ENE,68,0.0,0.0,60,0.00,,---,0.00,VWS V14.01,2013-06-20 20:18:00,
2013-06-20 15:23:00,86.8,71.3,30.06,ENE,68,0.0,0.0,60,0.00,,---,0.00,VWS V14.01,2013-06-20 20:23:00,
2013-06-20 15:28:00,86.6,71.1,30.06,ENE,68,0.0,0.0,60,0.00,,---,0.00,VWS V14.01,2013-06-20 20:28:00,
2013-06-20 15:33:00,86.8,71.8,30.06,NW,315,0.0,0.0,61,0.00,,---,0.00,VWS V14.01,2013-06-20 20:33:00,
2013-06-20 15:38:00,87.2,70.6,30.06,NE,45,0.0,0.0,58,0.00,,---,0.00,VWS V14.01,2013-06-20 20:38:00,
2013-06-20 15:43:00,87.4,70.8,30.06,NNE,22,0.0,0.0,58,0.00,,---,0.00,VWS V14.01,2013-06-20 20:43:00,
2013-06-20 15:48:00,87.7,70.1,30.03,NNW,338,0.0,0.0,56,0.00,,---,0.00,VWS V14.01,2013-06-20 20:48:00,
2013-06-20 15:53:00,87.9,70.3,30.03,ENE,68,0.0,0.0,56,0.00,,---,0.00,VWS V14.01,2013-06-20 20:53:00,
2013-06-20 15:58:00,87.7,71.1,30.03,NE,45,0.0,0.0,58,0.00,,---,0.00,VWS V14.01,2013-06-20 20:58:00,
2013-06-20 16:03:00,87.7,71.6,30.03,ENE,68,0.0,0.0,59,0.00,,---,0.00,VWS V14.01,2013-06-20 21:03:00,
2013-06-20 16:08:00,87.9,70.8,30.03,WNW,292,0.0,0.0,57,0.00,,---,0.00,VWS V14.01,2013-06-20 21:08:00,
2013-06-20 16:13:00,88.1,70.4,30.03,ENE,68,0.0,0.0,56,0.00,,---,0.00,VWS V14.01,2013-06-20 21:13:00,
2013-06-20 16:18:00,88.1,69.9,30.03,NE,45,0.0,0.0,55,0.00,,---,0.00,VWS V14.01,2013-06-20 21:18:00,
2013-06-20 16:23:00,87.9,70.3,30.03,East,90,0.0,0.0,56,0.00,,---,0.00,VWS V14.01,2013-06-20 21:23:00,
2013-06-20 16:28:00,87.5,70.9,30.03,ESE,112,0.0,0.0,58,0.00,,---,0.00,VWS V14.01,2013-06-20 21:28:00,
2013-06-20 16:33:00,87.4,70.8,30.03,NNW,338,0.0,0.0,58,0.00,,---,0.00,VWS V14.01,2013-06-20 21:33:00,
2013-06-20 16:38:00,87.4,71.3,30.03,ENE,68,0.0,0.0,59,0.00,,---,0.00,VWS V14.01,2013-06-20 21:38:00,
2013-06-20 16:43:00,87.2,70.6,30.03,ENE,68,0.0,0.0,58,0.00,,---,0.00,VWS V14.01,2013-06-20 21:43:00,
2013-06-20 16:48:00,86.6,69.1,30.03,NNW,338,0.0,0.0,56,0.00,,---,0.00,VWS V14.01,2013-06-20 21:48:00,
2013-06-20 16:53:00,85.7,68.8,30.03,NNW,338,0.0,0.0,57,0.00,,---,0.00,VWS V14.01,2013-06-20 21:53:00,
2013-06-20 16:58:00,85.0,69.1,30.03,NNW,338,0.0,0.0,59,0.00,,---,0.00,VWS V14.01,2013-06-20 21:58:00,
2013-06-20 17:03:00,85.0,69.6,30.03,NNW,338,0.0,0.0,60,0.00,,---,0.00,VWS V14.01,2013-06-20 22:03:00,
2013-06-20 17:08:00,85.0,71.0,30.03,ESE,112,0.0,0.0,63,0.00,,---,0.00,VWS V14.01,2013-06-20 22:08:00,
2013-06-20 17:13:00,85.0,71.0,30.03,ENE,68,0.0,0.0,63,0.00,,---,0.00,VWS V14.01,2013-06-20 22:13:00,
2013-06-20 17:18:00,85.2,71.2,30.03,ENE,68,0.0,0.0,63,0.00,,---,0.00,VWS V14.01,2013-06-20 22:18:00,
2013-06-20 17:23:00,85.4,71.4,30.03,ENE,68,0.0,0.0,63,0.00,,---,0.00,VWS V14.01,2013-06-20 22:23:00,
2013-06-20 17:29:00,85.2,71.2,30.03,ENE,68,0.0,0.0,63,0.00,,---,0.00,VWS V14.01,2013-06-20 22:29:00,
2013-06-20 17:34:00,85.0,71.9,30.03,South,180,0.0,0.0,65,0.00,,---,0.00,VWS V14.01,2013-06-20 22:34:00,
2013-06-20 17:39:00,85.0,71.9,30.03,SSE,158,0.0,0.0,65,0.00,,---,0.00,VWS V14.01,2013-06-20 22:39:00,
2013-06-20 17:44:00,84.7,72.1,30.03,SSE,158,0.0,0.0,66,0.00,,---,0.00,VWS V14.01,2013-06-20 22:44:00,
2013-06-20 17:49:00,84.5,71.9,30.03,SSE,158,0.0,0.0,66,0.00,,---,0.00,VWS V14.01,2013-06-20 22:49:00,
2013-06-20 17:54:00,84.3,71.7,30.03,SSE,158,0.0,0.0,66,0.00,,---,0.00,VWS V14.01,2013-06-20 22:54:00,
2013-06-20 17:59:00,83.9,71.8,30.03,WSW,248,0.0,0.0,67,0.00,,---,0.00,VWS V14.01,2013-06-20 22:59:00,
2013-06-20 18:04:00,83.8,71.6,30.03,ENE,68,0.0,0.0,67,0.00,,---,0.00,VWS V14.01,2013-06-20 23:04:00,
2013-06-20 18:09:00,83.6,71.9,30.03,SE,135,0.0,0.0,68,0.00,,---,0.00,VWS V14.01,2013-06-20 23:09:00,
2013-06-20 18:14:00,83.4,71.3,30.03,SE,135,0.0,0.0,67,0.00,,---,0.00,VWS V14.01,2013-06-20 23:14:00,
2013-06-20 18:19:00,83.4,71.3,30.03,SE,135,0.0,0.0,67,0.00,,---,0.00,VWS V14.01,2013-06-20 23:19:00,
2013-06-20 18:24:00,83.2,71.1,30.03,SSE,158,0.0,0.0,67,0.00,,---,0.00,VWS V14.01,2013-06-20 23:24:00,
2013-06-20 18:29:00,83.0,71.4,30.03,SSE,158,0.0,0.0,68,0.00,,---,0.00,VWS V14.01,2013-06-20 23:29:00,
2013-06-20 18:34:00,82.9,70.8,30.03,SSE,158,0.0,0.0,67,0.00,,---,0.00,VWS V14.01,2013-06-20 23:34:00,
2013-06-20 18:39:00,82.7,70.6,30.03,SSE,158,0.0,0.0,67,0.00,,---,0.00,VWS V14.01,2013-06-20 23:39:00,
2013-06-20 18:44:00,82.7,70.6,30.03,SSE,158,0.0,0.0,67,0.00,,---,0.00,VWS V14.01,2013-06-20 23:44:00,
2013-06-20 18:49:00,82.1,70.1,30.03,SSE,158,0.0,0.0,67,0.00,,---,0.00,VWS V14.01,2013-06-20 23:49:00,
2013-06-20 18:54:00,82.1,70.5,30.03,SSE,158,0.0,0.0,68,0.00,,---,0.00,VWS V14.01,2013-06-20 23:54:00,
2013-06-20 18:59:00,81.8,70.6,30.00,SSE,158,0.0,0.0,69,0.00,,---,0.00,VWS V14.01,2013-06-20 23:59:00,
2013-06-20 19:04:00,81.6,70.4,30.00,SE,135,0.0,0.0,69,0.00,,---,0.00,VWS V14.01,2013-06-21 00:04:00,
2013-06-20 19:09:00,81.4,71.1,30.00,SE,135,0.0,0.0,71,0.00,,---,0.00,VWS V14.01,2013-06-21 00:09:00,
2013-06-20 19:14:00,81.2,71.4,30.03,SE,135,0.0,0.0,72,0.00,,---,0.00,VWS V14.01,2013-06-21 00:14:00,
2013-06-20 19:19:00,81.1,71.6,30.03,SSE,158,0.0,0.0,73,0.00,,---,0.00,VWS V14.01,2013-06-21 00:19:00,
2013-06-20 19:24:00,80.9,71.8,30.03,SSE,158,0.0,0.0,74,0.00,,---,0.00,VWS V14.01,2013-06-21 00:24:00,
2013-06-20 19:29:00,80.7,71.7,30.03,SSE,158,0.0,0.0,74,0.00,,---,0.00,VWS V14.01,2013-06-21 00:29:00,
2013-06-20 19:34:00,80.5,71.9,30.03,SSE,158,0.0,0.0,75,0.00,,---,0.00,VWS V14.01,2013-06-21 00:34:00,
2013-06-20 19:39:00,80.3,72.1,30.03,SSE,158,0.0,0.0,76,0.00,,---,0.00,VWS V14.01,2013-06-21 00:39:00,
2013-06-20 19:44:00,80.2,72.3,30.03,SSE,158,0.0,0.0,77,0.00,,---,0.00,VWS V14.01,2013-06-21 00:44:00,
2013-06-20 19:49:00,79.8,71.9,30.03,SSE,158,0.0,0.0,77,0.00,,---,0.00,VWS V14.01,2013-06-21 00:49:00,
2013-06-20 19:54:00,79.4,71.6,30.03,SSE,158,0.0,0.0,77,0.00,,---,0.00,VWS V14.01,2013-06-21 00:54:00,
2013-06-20 19:59:00,79.3,71.8,30.03,SSE,158,0.0,0.0,78,0.00,,---,0.00,VWS V14.01,2013-06-21 00:59:00,
2013-06-20 20:04:00,78.9,71.8,30.03,SSE,158,0.0,0.0,79,0.00,,---,0.00,VWS V14.01,2013-06-21 01:04:00,
2013-06-20 20:09:00,78.5,71.5,30.03,SSE,158,0.0,0.0,79,0.00,,---,0.00,VWS V14.01,2013-06-21 01:09:00,
2013-06-20 20:14:00,78.4,71.7,30.03,SSE,158,0.0,0.0,80,0.00,,---,0.00,VWS V14.01,2013-06-21 01:14:00,
2013-06-20 20:19:00,78.0,71.3,30.03,SSE,158,0.0,0.0,80,0.00,,---,0.00,VWS V14.01,2013-06-21 01:19:00,
2013-06-20 20:24:00,77.8,71.9,30.03,SSE,158,0.0,0.0,82,0.00,,---,0.00,VWS V14.01,2013-06-21 01:24:00,
2013-06-20 20:29:00,77.6,71.7,30.03,SSE,158,0.0,0.0,82,0.00,,---,0.00,VWS V14.01,2013-06-21 01:29:00,
2013-06-20 20:34:00,77.5,71.5,30.03,SSE,158,0.0,0.0,82,0.00,,---,0.00,VWS V14.01,2013-06-21 01:34:00,
2013-06-20 20:39:00,77.1,71.5,30.03,SSE,158,0.0,0.0,83,0.00,,---,0.00,VWS V14.01,2013-06-21 01:39:00,
2013-06-20 20:44:00,76.9,71.4,30.03,SSE,158,0.0,0.0,83,0.00,,---,0.00,VWS V14.01,2013-06-21 01:44:00,
2013-06-20 20:49:00,76.7,71.6,30.03,SSE,158,0.0,0.0,84,0.00,,---,0.00,VWS V14.01,2013-06-21 01:49:00,
2013-06-20 20:54:00,76.6,71.7,30.03,SSE,158,0.0,0.0,85,0.00,,---,0.00,VWS V14.01,2013-06-21 01:54:00,
2013-06-20 20:59:00,76.4,71.5,30.03,SSE,158,0.0,0.0,85,0.00,,---,0.00,VWS V14.01,2013-06-21 01:59:00,
2013-06-20 21:04:00,76.2,71.7,30.03,SSE,158,0.0,0.0,86,0.00,,---,0.00,VWS V14.01,2013-06-21 02:04:00,
2013-06-20 21:10:00,76.0,71.9,30.03,SSE,158,0.0,0.0,87,0.00,,---,0.00,VWS V14.01,2013-06-21 02:10:00,
2013-06-20 21:15:00,75.8,71.7,30.03,SSE,158,0.0,0.0,87,0.00,,---,0.00,VWS V14.01,2013-06-21 02:15:00,
2013-06-20 21:20:00,75.7,71.9,30.03,SSE,158,0.0,0.0,88,0.00,,---,0.00,VWS V14.01,2013-06-21 02:20:00,
2013-06-20 21:25:00,75.7,71.9,30.03,SSE,158,0.0,0.0,88,0.00,,---,0.00,VWS V14.01,2013-06-21 02:25:00,
2013-06-20 21:30:00,75.5,71.7,30.03,SSE,158,0.0,0.0,88,0.00,,---,0.00,VWS V14.01,2013-06-21 02:30:00,
2013-06-20 21:35:00,75.3,71.8,30.03,SSE,158,0.0,0.0,89,0.00,,---,0.00,VWS V14.01,2013-06-21 02:35:00,
2013-06-20 21:40:00,75.1,71.7,30.03,SSE,158,0.0,0.0,89,0.00,,---,0.00,VWS V14.01,2013-06-21 02:40:00,
2013-06-20 21:45:00,75.1,71.7,30.06,SSE,158,0.0,0.0,89,0.00,,---,0.00,VWS V14.01,2013-06-21 02:45:00,
2013-06-20 21:50:00,74.9,71.5,30.06,SSE,158,0.0,0.0,89,0.00,,---,0.00,VWS V14.01,2013-06-21 02:50:00,
2013-06-20 21:55:00,74.9,71.5,30.06,SSE,158,0.0,0.0,89,0.00,,---,0.00,VWS V14.01,2013-06-21 02:55:00,
2013-06-20 22:00:00,74.8,71.6,30.03,SSE,158,0.0,0.0,90,0.00,,---,0.00,VWS V14.01,2013-06-21 03:00:00,
2013-06-20 22:05:00,74.6,71.5,30.03,SSE,158,0.0,0.0,90,0.00,,---,0.00,VWS V14.01,2013-06-21 03:05:00,
2013-06-20 22:10:00,74.6,71.5,30.03,SSE,158,0.0,0.0,90,0.00,,---,0.00,VWS V14.01,2013-06-21 03:10:00,
2013-06-20 22:15:00,74.4,71.3,30.06,SSE,158,0.0,0.0,90,0.00,,---,0.00,VWS V14.01,2013-06-21 03:15:00,
2013-06-20 22:20:00,74.4,71.3,30.06,SSE,158,0.0,0.0,90,0.00,,---,0.00,VWS V14.01,2013-06-21 03:20:00,
2013-06-20 22:25:00,74.2,71.4,30.06,SSE,158,0.0,0.0,91,0.00,,---,0.00,VWS V14.01,2013-06-21 03:25:00,
2013-06-20 22:30:00,74.2,71.4,30.06,SSE,158,0.0,0.0,91,0.00,,---,0.00,VWS V14.01,2013-06-21 03:30:00,
2013-06-20 22:35:00,74.0,71.2,30.06,SSE,158,0.0,0.0,91,0.00,,---,0.00,VWS V14.01,2013-06-21 03:35:00,
2013-06-20 22:40:00,74.0,71.2,30.06,SSE,158,0.0,0.0,91,0.00,,---,0.00,VWS V14.01,2013-06-21 03:40:00,
2013-06-20 22:45:00,73.9,71.1,30.06,SSE,158,0.0,0.0,91,0.00,,---,0.00,VWS V14.01,2013-06-21 03:45:00,
2013-06-20 22:50:00,73.7,70.9,30.06,SSE,158,0.0,0.0,91,0.00,,---,0.00,VWS V14.01,2013-06-21 03:50:00,
2013-06-20 22:55:00,73.7,71.2,30.06,SSE,158,0.0,0.0,92,0.00,,---,0.00,VWS V14.01,2013-06-21 03:55:00,
2013-06-20 23:00:00,73.7,70.9,30.06,SSE,158,0.0,0.0,91,0.00,,---,0.00,VWS V14.01,2013-06-21 04:00:00,
2013-06-20 23:01:00,73.7,71.2,30.06,SSE,158,0.0,0.0,92,0.00,,---,0.00,VWS V14.01,2013-06-21 04:01:00,
2013-06-20 23:06:00,73.5,71.0,30.06,SSE,158,0.0,0.0,92,0.00,,---,0.00,VWS V14.01,2013-06-21 04:06:00,
2013-06-20 23:11:00,73.3,70.5,30.06,SSE,158,0.0,0.0,91,0.00,,---,0.00,VWS V14.01,2013-06-21 04:11:00,
2013-06-20 23:16:00,73.3,70.9,30.06,SSE,158,0.0,0.0,92,0.00,,---,0.00,VWS V14.01,2013-06-21 04:16:00,
2013-06-20 23:21:00,73.1,70.7,30.06,SSE,158,0.0,0.0,92,0.00,,---,0.00,VWS V14.01,2013-06-21 04:21:00,
2013-06-20 23:26:00,73.1,70.7,30.06,SSE,158,0.0,0.0,92,0.00,,---,0.00,VWS V14.01,2013-06-21 04:26:00,
2013-06-20 23:31:00,73.0,70.5,30.06,SSE,158,0.0,0.0,92,0.00,,---,0.00,VWS V14.01,2013-06-21 04:31:00,
2013-06-20 23:36:00,73.0,70.5,30.06,SSE,158,0.0,0.0,92,0.00,,---,0.00,VWS V14.01,2013-06-21 04:36:00,
2013-06-20 23:41:00,72.8,70.3,30.06,SSE,158,0.0,0.0,92,0.00,,---,0.00,VWS V14.01,2013-06-21 04:41:00,
2013-06-20 23:46:00,72.8,70.3,30.06,SSE,158,0.0,0.0,92,0.00,,---,0.00,VWS V14.01,2013-06-21 04:46:00,
2013-06-20 23:51:00,72.8,70.3,30.06,SSE,158,0.0,0.0,92,0.00,,---,0.00,VWS V14.01,2013-06-21 04:51:00,
2013-06-20 23:56:00,72.6,70.2,30.06,SSE,158,0.0,0.0,92,0.00,,---,0.00,VWS V14.01,2013-06-21 04:56:00,